sensor_id;sensor_type;location;lat;lon;timestamp;P1;durP1;ratioP1;P2;durP2;ratioP2
72198;SDS011;60103;51.014;16.992;2023-03-31T00:01:39;8.90;;;3.00;;
72198;SDS011;60103;51.014;16.992;2023-03-31T00:04:10;9.10;;;3.00;;
72198;SDS011;60103;51.014;16.992;2023-03-31T00:06:41;9.00;;;3.40;;
72198;SDS011;60103;51.014;16.992;2023-03-31T00:09:10;9.10;;;3.10;;
72198;SDS011;60103;51.014;16.992;2023-03-31T00:11:41;10.40;;;3.30;;
72198;SDS011;60103;51.014;16.992;2023-03-31T00:14:09;9.50;;;2.50;;
72198;SDS011;60103;51.014;16.992;2023-03-31T00:16:38;9.70;;;3.50;;
72198;SDS011;60103;51.014;16.992;2023-03-31T00:19:08;11.40;;;3.40;;
72198;SDS011;60103;51.014;16.992;2023-03-31T00:21:40;9.20;;;3.10;;
72198;SDS011;60103;51.014;16.992;2023-03-31T00:24:10;10.30;;;3.40;;
72198;SDS011;60103;51.014;16.992;2023-03-31T00:26:41;8.60;;;2.50;;
72198;SDS011;60103;51.014;16.992;2023-03-31T00:29:11;6.70;;;2.00;;
72198;SDS011;60103;51.014;16.992;2023-03-31T00:31:42;7.10;;;2.30;;
72198;SDS011;60103;51.014;16.992;2023-03-31T00:34:11;9.90;;;3.00;;
72198;SDS011;60103;51.014;16.992;2023-03-31T00:36:40;7.80;;;2.30;;
72198;SDS011;60103;51.014;16.992;2023-03-31T00:39:16;8.20;;;2.50;;
72198;SDS011;60103;51.014;16.992;2023-03-31T00:41:49;9.00;;;2.40;;
72198;SDS011;60103;51.014;16.992;2023-03-31T00:44:21;8.70;;;2.70;;
72198;SDS011;60103;51.014;16.992;2023-03-31T00:47:02;7.80;;;2.40;;
72198;SDS011;60103;51.014;16.992;2023-03-31T00:49:38;8.20;;;2.30;;
72198;SDS011;60103;51.014;16.992;2023-03-31T00:52:10;7.40;;;2.50;;
72198;SDS011;60103;51.014;16.992;2023-03-31T00:54:52;8.50;;;2.30;;
72198;SDS011;60103;51.014;16.992;2023-03-31T00:57:27;10.20;;;3.00;;
72198;SDS011;60103;51.014;16.992;2023-03-31T01:00:00;7.70;;;2.60;;
72198;SDS011;60103;51.014;16.992;2023-03-31T01:02:59;9.70;;;2.90;;
72198;SDS011;60103;51.014;16.992;2023-03-31T01:08:10;8.90;;;3.20;;
72198;SDS011;60103;51.014;16.992;2023-03-31T01:10:40;10.20;;;3.00;;
72198;SDS011;60103;51.014;16.992;2023-03-31T01:13:12;11.60;;;3.80;;
72198;SDS011;60103;51.014;16.992;2023-03-31T01:15:42;8.30;;;2.90;;
72198;SDS011;60103;51.014;16.992;2023-03-31T01:18:12;8.70;;;3.20;;
72198;SDS011;60103;51.014;16.992;2023-03-31T01:23:35;8.40;;;3.10;;
72198;SDS011;60103;51.014;16.992;2023-03-31T01:26:32;10.60;;;2.80;;
72198;SDS011;60103;51.014;16.992;2023-03-31T01:32:17;10.00;;;3.20;;
72198;SDS011;60103;51.014;16.992;2023-03-31T01:35:14;8.50;;;2.70;;
72198;SDS011;60103;51.014;16.992;2023-03-31T01:38:10;7.90;;;2.80;;
72198;SDS011;60103;51.014;16.992;2023-03-31T01:46:03;8.90;;;3.00;;
72198;SDS011;60103;51.014;16.992;2023-03-31T01:51:16;9.40;;;3.40;;
72198;SDS011;60103;51.014;16.992;2023-03-31T01:56:30;9.40;;;3.40;;
72198;SDS011;60103;51.014;16.992;2023-03-31T01:59:03;10.10;;;4.20;;
72198;SDS011;60103;51.014;16.992;2023-03-31T02:01:46;9.10;;;3.60;;
72198;SDS011;60103;51.014;16.992;2023-03-31T02:04:25;10.30;;;3.80;;
72198;SDS011;60103;51.014;16.992;2023-03-31T02:07:02;8.10;;;3.70;;
72198;SDS011;60103;51.014;16.992;2023-03-31T02:09:37;10.00;;;3.40;;
72198;SDS011;60103;51.014;16.992;2023-03-31T02:12:08;9.00;;;3.30;;
72198;SDS011;60103;51.014;16.992;2023-03-31T02:14:40;8.20;;;3.10;;
72198;SDS011;60103;51.014;16.992;2023-03-31T02:17:13;8.70;;;3.50;;
72198;SDS011;60103;51.014;16.992;2023-03-31T02:19:46;10.00;;;3.80;;
72198;SDS011;60103;51.014;16.992;2023-03-31T02:22:20;10.00;;;3.70;;
72198;SDS011;60103;51.014;16.992;2023-03-31T02:24:50;10.50;;;3.60;;
72198;SDS011;60103;51.014;16.992;2023-03-31T02:27:21;11.00;;;3.60;;
72198;SDS011;60103;51.014;16.992;2023-03-31T02:29:53;9.40;;;3.60;;
72198;SDS011;60103;51.014;16.992;2023-03-31T02:32:39;10.00;;;3.90;;
72198;SDS011;60103;51.014;16.992;2023-03-31T02:35:09;10.60;;;3.30;;
72198;SDS011;60103;51.014;16.992;2023-03-31T02:37:40;7.90;;;3.20;;
72198;SDS011;60103;51.014;16.992;2023-03-31T02:40:17;12.00;;;4.00;;
72198;SDS011;60103;51.014;16.992;2023-03-31T02:42:47;9.20;;;3.30;;
72198;SDS011;60103;51.014;16.992;2023-03-31T02:48:08;9.10;;;3.50;;
72198;SDS011;60103;51.014;16.992;2023-03-31T02:53:47;8.50;;;3.30;;
72198;SDS011;60103;51.014;16.992;2023-03-31T02:56:43;7.60;;;2.70;;
72198;SDS011;60103;51.014;16.992;2023-03-31T03:08:08;9.10;;;3.30;;
72198;SDS011;60103;51.014;16.992;2023-03-31T03:10:58;8.70;;;3.10;;
72198;SDS011;60103;51.014;16.992;2023-03-31T03:13:44;9.90;;;3.80;;
72198;SDS011;60103;51.014;16.992;2023-03-31T03:16:35;9.10;;;4.00;;
72198;SDS011;60103;51.014;16.992;2023-03-31T03:19:05;10.10;;;4.10;;
72198;SDS011;60103;51.014;16.992;2023-03-31T03:21:34;9.30;;;4.00;;
72198;SDS011;60103;51.014;16.992;2023-03-31T03:24:03;10.20;;;3.50;;
72198;SDS011;60103;51.014;16.992;2023-03-31T03:26:32;8.20;;;3.70;;
72198;SDS011;60103;51.014;16.992;2023-03-31T03:29:02;8.10;;;3.40;;
72198;SDS011;60103;51.014;16.992;2023-03-31T03:31:31;10.00;;;3.90;;
72198;SDS011;60103;51.014;16.992;2023-03-31T03:34:01;9.00;;;3.70;;
72198;SDS011;60103;51.014;16.992;2023-03-31T03:36:30;9.50;;;3.80;;
72198;SDS011;60103;51.014;16.992;2023-03-31T03:39:00;11.10;;;3.80;;
72198;SDS011;60103;51.014;16.992;2023-03-31T03:41:30;10.10;;;3.80;;
72198;SDS011;60103;51.014;16.992;2023-03-31T03:44:00;10.90;;;4.10;;
72198;SDS011;60103;51.014;16.992;2023-03-31T03:46:29;10.20;;;3.80;;
72198;SDS011;60103;51.014;16.992;2023-03-31T03:49:00;12.40;;;4.60;;
72198;SDS011;60103;51.014;16.992;2023-03-31T03:51:29;10.50;;;5.10;;
72198;SDS011;60103;51.014;16.992;2023-03-31T03:53:58;10.80;;;4.60;;
72198;SDS011;60103;51.014;16.992;2023-03-31T03:56:27;11.20;;;5.00;;
72198;SDS011;60103;51.014;16.992;2023-03-31T03:58:56;11.60;;;4.50;;
72198;SDS011;60103;51.014;16.992;2023-03-31T04:01:25;11.30;;;4.50;;
72198;SDS011;60103;51.014;16.992;2023-03-31T04:03:54;11.00;;;4.20;;
72198;SDS011;60103;51.014;16.992;2023-03-31T04:06:23;11.00;;;4.90;;
72198;SDS011;60103;51.014;16.992;2023-03-31T04:08:52;10.40;;;4.40;;
72198;SDS011;60103;51.014;16.992;2023-03-31T04:11:21;12.00;;;4.40;;
72198;SDS011;60103;51.014;16.992;2023-03-31T04:13:52;10.20;;;5.00;;
72198;SDS011;60103;51.014;16.992;2023-03-31T04:16:21;12.20;;;4.80;;
72198;SDS011;60103;51.014;16.992;2023-03-31T04:18:53;10.70;;;4.60;;
72198;SDS011;60103;51.014;16.992;2023-03-31T04:21:26;11.60;;;4.30;;
72198;SDS011;60103;51.014;16.992;2023-03-31T04:23:55;10.80;;;4.20;;
72198;SDS011;60103;51.014;16.992;2023-03-31T04:26:30;11.30;;;5.10;;
72198;SDS011;60103;51.014;16.992;2023-03-31T04:29:20;11.60;;;4.60;;
72198;SDS011;60103;51.014;16.992;2023-03-31T04:31:49;11.10;;;4.40;;
72198;SDS011;60103;51.014;16.992;2023-03-31T04:34:19;12.50;;;5.30;;
72198;SDS011;60103;51.014;16.992;2023-03-31T04:36:54;9.60;;;3.90;;
72198;SDS011;60103;51.014;16.992;2023-03-31T04:39:23;10.80;;;4.40;;
72198;SDS011;60103;51.014;16.992;2023-03-31T04:41:56;10.80;;;4.40;;
72198;SDS011;60103;51.014;16.992;2023-03-31T04:44:27;11.60;;;4.40;;
72198;SDS011;60103;51.014;16.992;2023-03-31T04:46:57;11.00;;;4.20;;
72198;SDS011;60103;51.014;16.992;2023-03-31T04:49:26;11.50;;;4.10;;
72198;SDS011;60103;51.014;16.992;2023-03-31T04:51:55;9.00;;;3.70;;
72198;SDS011;60103;51.014;16.992;2023-03-31T04:54:24;10.60;;;4.40;;
72198;SDS011;60103;51.014;16.992;2023-03-31T04:56:54;10.00;;;4.00;;
72198;SDS011;60103;51.014;16.992;2023-03-31T04:59:23;11.60;;;4.20;;
72198;SDS011;60103;51.014;16.992;2023-03-31T05:01:56;10.20;;;3.80;;
72198;SDS011;60103;51.014;16.992;2023-03-31T05:04:24;12.00;;;4.80;;
72198;SDS011;60103;51.014;16.992;2023-03-31T05:06:53;12.20;;;4.80;;
72198;SDS011;60103;51.014;16.992;2023-03-31T05:09:24;11.30;;;4.70;;
72198;SDS011;60103;51.014;16.992;2023-03-31T05:11:53;15.10;;;5.80;;
72198;SDS011;60103;51.014;16.992;2023-03-31T05:14:22;11.40;;;5.10;;
72198;SDS011;60103;51.014;16.992;2023-03-31T05:16:53;13.00;;;5.00;;
72198;SDS011;60103;51.014;16.992;2023-03-31T05:19:26;11.70;;;5.50;;
72198;SDS011;60103;51.014;16.992;2023-03-31T05:21:56;11.70;;;4.60;;
72198;SDS011;60103;51.014;16.992;2023-03-31T05:24:25;12.80;;;4.70;;
72198;SDS011;60103;51.014;16.992;2023-03-31T05:26:55;10.60;;;4.40;;
72198;SDS011;60103;51.014;16.992;2023-03-31T05:29:24;10.80;;;4.40;;
72198;SDS011;60103;51.014;16.992;2023-03-31T05:31:53;11.40;;;4.30;;
72198;SDS011;60103;51.014;16.992;2023-03-31T05:34:22;9.50;;;3.70;;
72198;SDS011;60103;51.014;16.992;2023-03-31T05:36:51;11.30;;;4.70;;
72198;SDS011;60103;51.014;16.992;2023-03-31T05:39:21;11.70;;;4.60;;
72198;SDS011;60103;51.014;16.992;2023-03-31T05:41:51;10.00;;;4.70;;
72198;SDS011;60103;51.014;16.992;2023-03-31T05:44:19;9.80;;;4.50;;
72198;SDS011;60103;51.014;16.992;2023-03-31T05:46:48;9.50;;;3.90;;
72198;SDS011;60103;51.014;16.992;2023-03-31T05:49:17;9.40;;;4.40;;
72198;SDS011;60103;51.014;16.992;2023-03-31T05:51:46;10.90;;;4.70;;
72198;SDS011;60103;51.014;16.992;2023-03-31T05:54:15;11.10;;;4.50;;
72198;SDS011;60103;51.014;16.992;2023-03-31T05:56:45;10.80;;;4.70;;
72198;SDS011;60103;51.014;16.992;2023-03-31T05:59:13;10.90;;;4.90;;
72198;SDS011;60103;51.014;16.992;2023-03-31T06:01:43;12.90;;;5.00;;
72198;SDS011;60103;51.014;16.992;2023-03-31T06:04:13;10.40;;;4.30;;
72198;SDS011;60103;51.014;16.992;2023-03-31T06:06:42;11.10;;;4.90;;
72198;SDS011;60103;51.014;16.992;2023-03-31T06:09:11;11.60;;;5.80;;
72198;SDS011;60103;51.014;16.992;2023-03-31T06:11:40;10.50;;;5.10;;
72198;SDS011;60103;51.014;16.992;2023-03-31T06:14:09;12.80;;;5.60;;
72198;SDS011;60103;51.014;16.992;2023-03-31T06:16:38;10.80;;;4.80;;
72198;SDS011;60103;51.014;16.992;2023-03-31T06:19:07;13.40;;;5.30;;
72198;SDS011;60103;51.014;16.992;2023-03-31T06:21:36;12.20;;;5.50;;
72198;SDS011;60103;51.014;16.992;2023-03-31T06:24:05;12.20;;;5.60;;
72198;SDS011;60103;51.014;16.992;2023-03-31T06:26:34;12.30;;;5.30;;
72198;SDS011;60103;51.014;16.992;2023-03-31T06:29:03;13.00;;;5.50;;
72198;SDS011;60103;51.014;16.992;2023-03-31T06:31:32;12.70;;;5.80;;
72198;SDS011;60103;51.014;16.992;2023-03-31T06:34:01;12.00;;;5.60;;
72198;SDS011;60103;51.014;16.992;2023-03-31T06:36:29;13.60;;;5.20;;
72198;SDS011;60103;51.014;16.992;2023-03-31T06:38:58;13.60;;;4.60;;
72198;SDS011;60103;51.014;16.992;2023-03-31T06:41:27;10.80;;;5.20;;
72198;SDS011;60103;51.014;16.992;2023-03-31T06:43:56;12.90;;;5.20;;
72198;SDS011;60103;51.014;16.992;2023-03-31T06:46:26;12.50;;;5.50;;
72198;SDS011;60103;51.014;16.992;2023-03-31T06:48:55;11.80;;;4.90;;
72198;SDS011;60103;51.014;16.992;2023-03-31T06:51:24;13.20;;;5.50;;
72198;SDS011;60103;51.014;16.992;2023-03-31T06:53:53;12.20;;;5.10;;
72198;SDS011;60103;51.014;16.992;2023-03-31T06:56:22;12.80;;;5.40;;
72198;SDS011;60103;51.014;16.992;2023-03-31T06:58:50;12.50;;;5.70;;
72198;SDS011;60103;51.014;16.992;2023-03-31T07:01:19;10.00;;;4.30;;
72198;SDS011;60103;51.014;16.992;2023-03-31T07:03:49;13.00;;;5.50;;
72198;SDS011;60103;51.014;16.992;2023-03-31T07:06:18;12.80;;;5.60;;
72198;SDS011;60103;51.014;16.992;2023-03-31T07:08:47;12.20;;;5.10;;
72198;SDS011;60103;51.014;16.992;2023-03-31T07:11:16;12.70;;;5.70;;
72198;SDS011;60103;51.014;16.992;2023-03-31T07:13:48;11.80;;;5.60;;
72198;SDS011;60103;51.014;16.992;2023-03-31T07:16:17;14.40;;;5.70;;
72198;SDS011;60103;51.014;16.992;2023-03-31T07:18:46;14.60;;;5.80;;
72198;SDS011;60103;51.014;16.992;2023-03-31T07:21:15;10.30;;;4.90;;
72198;SDS011;60103;51.014;16.992;2023-03-31T07:23:44;12.80;;;6.00;;
72198;SDS011;60103;51.014;16.992;2023-03-31T07:26:13;14.80;;;5.90;;
72198;SDS011;60103;51.014;16.992;2023-03-31T07:28:41;13.10;;;6.10;;
72198;SDS011;60103;51.014;16.992;2023-03-31T07:31:11;13.20;;;6.20;;
72198;SDS011;60103;51.014;16.992;2023-03-31T07:33:41;13.10;;;6.10;;
72198;SDS011;60103;51.014;16.992;2023-03-31T07:36:12;12.30;;;6.10;;
72198;SDS011;60103;51.014;16.992;2023-03-31T07:38:42;13.70;;;6.60;;
72198;SDS011;60103;51.014;16.992;2023-03-31T07:41:15;12.70;;;5.90;;
72198;SDS011;60103;51.014;16.992;2023-03-31T07:43:45;13.80;;;6.10;;
72198;SDS011;60103;51.014;16.992;2023-03-31T07:46:19;15.10;;;6.40;;
72198;SDS011;60103;51.014;16.992;2023-03-31T07:48:53;12.80;;;5.90;;
72198;SDS011;60103;51.014;16.992;2023-03-31T07:51:24;11.70;;;5.10;;
72198;SDS011;60103;51.014;16.992;2023-03-31T07:53:56;12.70;;;4.70;;
72198;SDS011;60103;51.014;16.992;2023-03-31T07:56:25;13.60;;;7.00;;
72198;SDS011;60103;51.014;16.992;2023-03-31T07:58:54;11.10;;;5.20;;
72198;SDS011;60103;51.014;16.992;2023-03-31T08:01:24;13.70;;;4.40;;
72198;SDS011;60103;51.014;16.992;2023-03-31T08:03:57;14.40;;;5.70;;
72198;SDS011;60103;51.014;16.992;2023-03-31T08:06:26;12.70;;;5.40;;
72198;SDS011;60103;51.014;16.992;2023-03-31T08:08:56;13.00;;;6.60;;
72198;SDS011;60103;51.014;16.992;2023-03-31T08:11:26;13.20;;;5.50;;
72198;SDS011;60103;51.014;16.992;2023-03-31T08:13:57;12.50;;;5.80;;
72198;SDS011;60103;51.014;16.992;2023-03-31T08:16:26;12.60;;;5.00;;
72198;SDS011;60103;51.014;16.992;2023-03-31T08:18:55;10.00;;;4.00;;
72198;SDS011;60103;51.014;16.992;2023-03-31T08:21:24;9.80;;;4.40;;
72198;SDS011;60103;51.014;16.992;2023-03-31T08:23:53;11.10;;;4.60;;
72198;SDS011;60103;51.014;16.992;2023-03-31T08:26:23;9.00;;;3.60;;
72198;SDS011;60103;51.014;16.992;2023-03-31T08:28:53;10.20;;;4.10;;
72198;SDS011;60103;51.014;16.992;2023-03-31T08:31:22;9.70;;;3.40;;
72198;SDS011;60103;51.014;16.992;2023-03-31T08:33:54;11.20;;;4.20;;
72198;SDS011;60103;51.014;16.992;2023-03-31T08:36:23;8.70;;;3.90;;
72198;SDS011;60103;51.014;16.992;2023-03-31T08:38:53;8.80;;;3.70;;
72198;SDS011;60103;51.014;16.992;2023-03-31T08:44:08;8.50;;;3.70;;
72198;SDS011;60103;51.014;16.992;2023-03-31T08:46:41;9.70;;;4.40;;
72198;SDS011;60103;51.014;16.992;2023-03-31T08:49:13;9.00;;;3.30;;
72198;SDS011;60103;51.014;16.992;2023-03-31T08:54:51;8.30;;;3.40;;
72198;SDS011;60103;51.014;16.992;2023-03-31T08:57:34;8.60;;;3.20;;
72198;SDS011;60103;51.014;16.992;2023-03-31T09:00:15;9.90;;;3.10;;
72198;SDS011;60103;51.014;16.992;2023-03-31T09:08:30;12.10;;;3.40;;
72198;SDS011;60103;51.014;16.992;2023-03-31T09:11:05;9.50;;;3.60;;
72198;SDS011;60103;51.014;16.992;2023-03-31T09:16:32;11.40;;;3.90;;
72198;SDS011;60103;51.014;16.992;2023-03-31T09:19:10;10.60;;;3.50;;
72198;SDS011;60103;51.014;16.992;2023-03-31T09:21:49;7.90;;;2.70;;
72198;SDS011;60103;51.014;16.992;2023-03-31T09:25:04;9.50;;;3.20;;
72198;SDS011;60103;51.014;16.992;2023-03-31T09:27:23;9.10;;;3.30;;
72198;SDS011;60103;51.014;16.992;2023-03-31T09:30:02;9.00;;;3.40;;
72198;SDS011;60103;51.014;16.992;2023-03-31T09:32:38;8.70;;;3.00;;
72198;SDS011;60103;51.014;16.992;2023-03-31T09:35:20;9.10;;;2.60;;
72198;SDS011;60103;51.014;16.992;2023-03-31T09:37:52;9.90;;;2.90;;
72198;SDS011;60103;51.014;16.992;2023-03-31T09:40:23;9.80;;;2.90;;
72198;SDS011;60103;51.014;16.992;2023-03-31T09:42:55;9.10;;;3.40;;
72198;SDS011;60103;51.014;16.992;2023-03-31T09:45:28;9.50;;;3.60;;
72198;SDS011;60103;51.014;16.992;2023-03-31T09:48:00;9.60;;;3.80;;
72198;SDS011;60103;51.014;16.992;2023-03-31T09:50:32;9.10;;;3.30;;
72198;SDS011;60103;51.014;16.992;2023-03-31T09:53:04;8.80;;;3.60;;
72198;SDS011;60103;51.014;16.992;2023-03-31T09:55:54;9.00;;;3.90;;
72198;SDS011;60103;51.014;16.992;2023-03-31T09:58:29;8.10;;;2.70;;
72198;SDS011;60103;51.014;16.992;2023-03-31T10:01:04;9.60;;;3.30;;
72198;SDS011;60103;51.014;16.992;2023-03-31T10:03:51;10.00;;;3.30;;
72198;SDS011;60103;51.014;16.992;2023-03-31T10:06:22;9.60;;;2.80;;
72198;SDS011;60103;51.014;16.992;2023-03-31T10:08:55;8.80;;;3.70;;
72198;SDS011;60103;51.014;16.992;2023-03-31T10:11:26;10.00;;;3.20;;
72198;SDS011;60103;51.014;16.992;2023-03-31T10:14:00;10.30;;;3.60;;
72198;SDS011;60103;51.014;16.992;2023-03-31T10:16:33;8.50;;;2.80;;
72198;SDS011;60103;51.014;16.992;2023-03-31T10:19:12;10.90;;;2.60;;
72198;SDS011;60103;51.014;16.992;2023-03-31T10:21:57;8.30;;;2.60;;
72198;SDS011;60103;51.014;16.992;2023-03-31T10:24:38;7.90;;;2.40;;
72198;SDS011;60103;51.014;16.992;2023-03-31T10:29:58;9.90;;;3.00;;
72198;SDS011;60103;51.014;16.992;2023-03-31T10:32:30;8.70;;;2.80;;
72198;SDS011;60103;51.014;16.992;2023-03-31T10:35:05;8.50;;;2.50;;
72198;SDS011;60103;51.014;16.992;2023-03-31T10:37:49;8.90;;;3.20;;
72198;SDS011;60103;51.014;16.992;2023-03-31T10:40:23;9.40;;;3.60;;
72198;SDS011;60103;51.014;16.992;2023-03-31T10:43:01;10.00;;;2.60;;
72198;SDS011;60103;51.014;16.992;2023-03-31T10:45:48;7.20;;;2.70;;
72198;SDS011;60103;51.014;16.992;2023-03-31T10:48:19;7.10;;;2.10;;
72198;SDS011;60103;51.014;16.992;2023-03-31T10:50:58;8.70;;;2.20;;
72198;SDS011;60103;51.014;16.992;2023-03-31T10:53:54;6.50;;;2.00;;
72198;SDS011;60103;51.014;16.992;2023-03-31T11:02:31;7.50;;;2.40;;
72198;SDS011;60103;51.014;16.992;2023-03-31T11:08:02;7.00;;;2.10;;
72198;SDS011;60103;51.014;16.992;2023-03-31T11:10:50;7.70;;;2.10;;
72198;SDS011;60103;51.014;16.992;2023-03-31T11:33:16;10.00;;;2.70;;
72198;SDS011;60103;51.014;16.992;2023-03-31T11:35:59;7.80;;;2.00;;
72198;SDS011;60103;51.014;16.992;2023-03-31T11:41:49;7.60;;;1.90;;
72198;SDS011;60103;51.014;16.992;2023-03-31T11:44:21;7.50;;;1.90;;
72198;SDS011;60103;51.014;16.992;2023-03-31T11:46:53;8.10;;;1.60;;
72198;SDS011;60103;51.014;16.992;2023-03-31T11:49:27;9.00;;;1.90;;
72198;SDS011;60103;51.014;16.992;2023-03-31T11:52:09;7.20;;;1.60;;
72198;SDS011;60103;51.014;16.992;2023-03-31T11:57:28;8.80;;;2.10;;
72198;SDS011;60103;51.014;16.992;2023-03-31T12:00:16;8.80;;;1.90;;
72198;SDS011;60103;51.014;16.992;2023-03-31T12:02:58;7.80;;;1.90;;
72198;SDS011;60103;51.014;16.992;2023-03-31T12:05:55;7.60;;;1.80;;
72198;SDS011;60103;51.014;16.992;2023-03-31T12:08:32;8.20;;;1.90;;
72198;SDS011;60103;51.014;16.992;2023-03-31T12:11:08;10.10;;;2.50;;
72198;SDS011;60103;51.014;16.992;2023-03-31T12:16:54;9.00;;;2.10;;
72198;SDS011;60103;51.014;16.992;2023-03-31T12:19:48;9.50;;;2.10;;
72198;SDS011;60103;51.014;16.992;2023-03-31T12:22:28;6.20;;;2.10;;
72198;SDS011;60103;51.014;16.992;2023-03-31T12:24:58;6.90;;;1.80;;
72198;SDS011;60103;51.014;16.992;2023-03-31T12:27:34;8.60;;;2.10;;
72198;SDS011;60103;51.014;16.992;2023-03-31T12:30:38;8.80;;;2.00;;
72198;SDS011;60103;51.014;16.992;2023-03-31T12:41:57;6.30;;;1.80;;
72198;SDS011;60103;51.014;16.992;2023-03-31T12:55:58;9.70;;;2.60;;
72198;SDS011;60103;51.014;16.992;2023-03-31T13:06:52;7.10;;;2.00;;
72198;SDS011;60103;51.014;16.992;2023-03-31T13:12:15;8.00;;;2.50;;
72198;SDS011;60103;51.014;16.992;2023-03-31T13:14:48;8.80;;;2.40;;
72198;SDS011;60103;51.014;16.992;2023-03-31T13:17:24;8.70;;;2.50;;
72198;SDS011;60103;51.014;16.992;2023-03-31T13:23:05;8.70;;;2.60;;
72198;SDS011;60103;51.014;16.992;2023-03-31T13:31:13;11.50;;;2.80;;
72198;SDS011;60103;51.014;16.992;2023-03-31T14:06:55;8.50;;;2.40;;
72198;SDS011;60103;51.014;16.992;2023-03-31T14:09:33;7.60;;;2.20;;
72198;SDS011;60103;51.014;16.992;2023-03-31T14:15:03;8.00;;;2.80;;
72198;SDS011;60103;51.014;16.992;2023-03-31T14:17:37;9.50;;;2.80;;
72198;SDS011;60103;51.014;16.992;2023-03-31T14:23:18;7.70;;;2.60;;
72198;SDS011;60103;51.014;16.992;2023-03-31T14:37:28;10.50;;;2.70;;
72198;SDS011;60103;51.014;16.992;2023-03-31T14:40:01;9.40;;;2.50;;
72198;SDS011;60103;51.014;16.992;2023-03-31T14:42:36;7.90;;;2.40;;
72198;SDS011;60103;51.014;16.992;2023-03-31T14:45:25;7.60;;;2.50;;
72198;SDS011;60103;51.014;16.992;2023-03-31T14:48:03;8.90;;;2.70;;
72198;SDS011;60103;51.014;16.992;2023-03-31T14:50:42;8.60;;;2.90;;
72198;SDS011;60103;51.014;16.992;2023-03-31T14:53:12;8.20;;;2.60;;
72198;SDS011;60103;51.014;16.992;2023-03-31T14:55:43;7.70;;;2.50;;
72198;SDS011;60103;51.014;16.992;2023-03-31T14:58:27;7.90;;;2.70;;
72198;SDS011;60103;51.014;16.992;2023-03-31T15:01:02;7.90;;;2.50;;
72198;SDS011;60103;51.014;16.992;2023-03-31T15:03:35;7.10;;;2.20;;
72198;SDS011;60103;51.014;16.992;2023-03-31T15:06:08;7.10;;;2.10;;
72198;SDS011;60103;51.014;16.992;2023-03-31T15:08:39;6.30;;;2.20;;
72198;SDS011;60103;51.014;16.992;2023-03-31T15:11:11;7.50;;;2.20;;
72198;SDS011;60103;51.014;16.992;2023-03-31T15:13:47;7.90;;;2.60;;
72198;SDS011;60103;51.014;16.992;2023-03-31T15:16:38;7.60;;;2.10;;
72198;SDS011;60103;51.014;16.992;2023-03-31T15:19:14;6.90;;;2.20;;
72198;SDS011;60103;51.014;16.992;2023-03-31T15:21:46;6.90;;;1.90;;
72198;SDS011;60103;51.014;16.992;2023-03-31T15:24:30;6.80;;;2.10;;
72198;SDS011;60103;51.014;16.992;2023-03-31T15:27:04;5.50;;;1.70;;
72198;SDS011;60103;51.014;16.992;2023-03-31T15:29:48;7.30;;;1.70;;
72198;SDS011;60103;51.014;16.992;2023-03-31T15:32:22;5.00;;;1.30;;
72198;SDS011;60103;51.014;16.992;2023-03-31T15:34:53;5.30;;;1.50;;
72198;SDS011;60103;51.014;16.992;2023-03-31T15:37:37;6.10;;;1.90;;
72198;SDS011;60103;51.014;16.992;2023-03-31T15:40:34;6.20;;;1.70;;
72198;SDS011;60103;51.014;16.992;2023-03-31T15:43:04;5.90;;;1.50;;
72198;SDS011;60103;51.014;16.992;2023-03-31T15:45:53;5.90;;;1.60;;
72198;SDS011;60103;51.014;16.992;2023-03-31T15:53:49;6.30;;;1.40;;
72198;SDS011;60103;51.014;16.992;2023-03-31T15:56:26;7.60;;;1.80;;
72198;SDS011;60103;51.014;16.992;2023-03-31T15:59:04;5.90;;;1.60;;
72198;SDS011;60103;51.014;16.992;2023-03-31T16:01:37;6.90;;;1.80;;
72198;SDS011;60103;51.014;16.992;2023-03-31T16:04:11;6.10;;;2.00;;
72198;SDS011;60103;51.014;16.992;2023-03-31T16:09:25;7.10;;;2.10;;
72198;SDS011;60103;51.014;16.992;2023-03-31T16:11:57;7.30;;;2.40;;
72198;SDS011;60103;51.014;16.992;2023-03-31T16:14:42;6.80;;;2.40;;
72198;SDS011;60103;51.014;16.992;2023-03-31T16:17:29;6.70;;;1.90;;
72198;SDS011;60103;51.014;16.992;2023-03-31T16:20:08;6.80;;;2.00;;
72198;SDS011;60103;51.014;16.992;2023-03-31T16:22:46;7.30;;;2.10;;
72198;SDS011;60103;51.014;16.992;2023-03-31T16:25:19;7.50;;;1.90;;
72198;SDS011;60103;51.014;16.992;2023-03-31T16:27:50;7.10;;;2.40;;
72198;SDS011;60103;51.014;16.992;2023-03-31T16:30:33;6.30;;;1.90;;
72198;SDS011;60103;51.014;16.992;2023-03-31T16:33:07;7.00;;;1.90;;
72198;SDS011;60103;51.014;16.992;2023-03-31T16:35:41;7.20;;;2.00;;
72198;SDS011;60103;51.014;16.992;2023-03-31T16:38:12;6.20;;;2.00;;
72198;SDS011;60103;51.014;16.992;2023-03-31T16:40:47;8.50;;;2.20;;
72198;SDS011;60103;51.014;16.992;2023-03-31T16:43:20;6.80;;;2.10;;
72198;SDS011;60103;51.014;16.992;2023-03-31T16:45:57;7.00;;;1.70;;
72198;SDS011;60103;51.014;16.992;2023-03-31T16:48:29;6.50;;;1.80;;
72198;SDS011;60103;51.014;16.992;2023-03-31T16:51:01;6.40;;;1.80;;
72198;SDS011;60103;51.014;16.992;2023-03-31T16:53:32;8.00;;;2.30;;
72198;SDS011;60103;51.014;16.992;2023-03-31T16:56:03;7.60;;;2.20;;
72198;SDS011;60103;51.014;16.992;2023-03-31T16:58:36;9.50;;;2.50;;
72198;SDS011;60103;51.014;16.992;2023-03-31T17:01:05;7.00;;;2.40;;
72198;SDS011;60103;51.014;16.992;2023-03-31T17:03:36;7.30;;;2.10;;
72198;SDS011;60103;51.014;16.992;2023-03-31T17:06:10;8.00;;;2.00;;
72198;SDS011;60103;51.014;16.992;2023-03-31T17:08:40;7.70;;;2.40;;
72198;SDS011;60103;51.014;16.992;2023-03-31T17:11:10;6.20;;;2.30;;
72198;SDS011;60103;51.014;16.992;2023-03-31T17:13:42;6.60;;;2.20;;
72198;SDS011;60103;51.014;16.992;2023-03-31T17:16:12;7.90;;;2.70;;
72198;SDS011;60103;51.014;16.992;2023-03-31T17:18:53;6.60;;;2.20;;
72198;SDS011;60103;51.014;16.992;2023-03-31T17:21:23;7.40;;;2.40;;
72198;SDS011;60103;51.014;16.992;2023-03-31T17:23:52;7.40;;;2.90;;
72198;SDS011;60103;51.014;16.992;2023-03-31T17:26:22;8.30;;;3.20;;
72198;SDS011;60103;51.014;16.992;2023-03-31T17:28:51;8.60;;;3.00;;
72198;SDS011;60103;51.014;16.992;2023-03-31T17:31:21;11.60;;;3.20;;
72198;SDS011;60103;51.014;16.992;2023-03-31T17:33:50;9.50;;;3.40;;
72198;SDS011;60103;51.014;16.992;2023-03-31T17:36:20;8.70;;;2.90;;
72198;SDS011;60103;51.014;16.992;2023-03-31T17:38:49;8.50;;;2.90;;
72198;SDS011;60103;51.014;16.992;2023-03-31T17:41:19;7.90;;;3.10;;
72198;SDS011;60103;51.014;16.992;2023-03-31T17:43:50;7.70;;;2.70;;
72198;SDS011;60103;51.014;16.992;2023-03-31T17:46:22;7.10;;;2.80;;
72198;SDS011;60103;51.014;16.992;2023-03-31T17:48:52;9.50;;;3.10;;
72198;SDS011;60103;51.014;16.992;2023-03-31T17:51:24;8.80;;;3.80;;
72198;SDS011;60103;51.014;16.992;2023-03-31T17:53:53;8.60;;;3.30;;
72198;SDS011;60103;51.014;16.992;2023-03-31T17:56:23;8.10;;;3.30;;
72198;SDS011;60103;51.014;16.992;2023-03-31T17:58:56;8.60;;;3.60;;
72198;SDS011;60103;51.014;16.992;2023-03-31T18:01:25;8.40;;;3.30;;
72198;SDS011;60103;51.014;16.992;2023-03-31T18:03:56;8.60;;;2.90;;
72198;SDS011;60103;51.014;16.992;2023-03-31T18:06:26;8.40;;;3.30;;
72198;SDS011;60103;51.014;16.992;2023-03-31T18:08:56;8.90;;;3.40;;
72198;SDS011;60103;51.014;16.992;2023-03-31T18:11:25;9.10;;;3.80;;
72198;SDS011;60103;51.014;16.992;2023-03-31T18:13:55;11.30;;;4.30;;